createdAt,value
2017-07-03T00:00:50.415Z,1013.97
2017-07-03T00:01:50.401Z,1014.02
2017-07-03T00:02:50.388Z,1014
2017-07-03T00:03:50.375Z,1014
2017-07-03T00:04:50.363Z,1013.99
2017-07-03T00:05:50.351Z,1014.04
2017-07-03T00:06:50.335Z,1014.01
2017-07-03T00:07:50.322Z,1013.99
2017-07-03T00:08:50.308Z,1013.95
2017-07-03T00:09:50.297Z,1014.01
2017-07-03T00:10:50.326Z,1013.98
2017-07-03T00:11:50.267Z,1013.97
2017-07-03T00:12:50.254Z,1013.99
2017-07-03T00:13:50.240Z,1013.99
2017-07-03T00:14:50.235Z,1013.99
2017-07-03T00:15:50.214Z,1013.97
2017-07-03T00:16:50.202Z,1013.97
2017-07-03T00:17:50.189Z,1013.96
2017-07-03T00:18:50.174Z,1013.97
2017-07-03T00:19:50.162Z,1013.98
2017-07-03T00:20:50.175Z,1013.99
2017-07-03T00:21:50.135Z,1014.01
2017-07-03T00:22:50.120Z,1014.04
2017-07-03T00:23:50.107Z,1014.05
2017-07-03T00:24:50.095Z,1014.05
2017-07-03T00:25:50.079Z,1014.07
2017-07-03T00:26:50.065Z,1014.08
2017-07-03T00:27:50.051Z,1014.08
2017-07-03T00:28:50.039Z,1014.05
2017-07-03T00:29:50.024Z,1014.08
2017-07-03T00:30:50.011Z,1014.05
2017-07-03T00:31:49.997Z,1014.03
2017-07-03T00:32:49.985Z,1014.06
2017-07-03T00:33:49.970Z,1014.06
2017-07-03T00:34:49.957Z,1014.05
2017-07-03T00:35:49.944Z,1014.09
2017-07-03T00:36:49.928Z,1014.09
2017-07-03T00:37:49.915Z,1014.1
2017-07-03T00:38:49.903Z,1014.07
2017-07-03T00:39:49.889Z,1014.1
2017-07-03T00:40:49.875Z,1014.16
2017-07-03T00:41:49.860Z,1014.12
2017-07-03T00:42:49.848Z,1014.12
2017-07-03T00:43:49.834Z,1014.11
2017-07-03T00:44:49.820Z,1014.14
2017-07-03T00:45:49.806Z,1014.09
2017-07-03T00:46:49.791Z,1014.13
2017-07-03T00:47:49.777Z,1014.13
2017-07-03T00:48:49.763Z,1014.1
2017-07-03T00:49:49.751Z,1014.1
2017-07-03T00:50:49.737Z,1014.11
2017-07-03T00:51:49.723Z,1014.14
2017-07-03T00:52:49.710Z,1014.12
2017-07-03T00:53:49.695Z,1014.11
2017-07-03T00:54:49.686Z,1014.11
2017-07-03T00:55:49.666Z,1014.08
2017-07-03T00:56:49.655Z,1014.05
2017-07-03T00:57:49.642Z,1014.05
2017-07-03T00:58:49.626Z,1014.08
2017-07-03T00:59:49.610Z,1014.1
2017-07-03T01:00:49.597Z,1014.16
2017-07-03T01:01:49.584Z,1014.12
2017-07-03T01:02:49.570Z,1014.11
2017-07-03T01:03:49.555Z,1014.13
2017-07-03T01:04:49.541Z,1014.13
2017-07-03T01:05:49.527Z,1014.11
2017-07-03T01:06:49.516Z,1014.17
2017-07-03T01:07:49.498Z,1014.12
2017-07-03T01:08:49.487Z,1014.15
2017-07-03T01:09:49.470Z,1014.16
2017-07-03T01:10:49.456Z,1014.14
2017-07-03T01:11:49.442Z,1014.12
2017-07-03T01:12:49.429Z,1014.12
2017-07-03T01:13:49.414Z,1014.11
2017-07-03T01:14:49.400Z,1014.13
2017-07-03T01:15:49.385Z,1014.14
2017-07-03T01:16:49.374Z,1014.16
2017-07-03T01:17:49.357Z,1014.14
2017-07-03T01:18:49.344Z,1014.15
2017-07-03T01:19:49.330Z,1014.18
2017-07-03T01:20:49.314Z,1014.19
2017-07-03T01:21:49.301Z,1014.18
2017-07-03T01:22:49.286Z,1014.16
2017-07-03T01:23:49.273Z,1014.2
2017-07-03T01:24:49.257Z,1014.17
2017-07-03T01:25:49.246Z,1014.16
2017-07-03T01:26:49.229Z,1014.13
2017-07-03T01:27:49.216Z,1014.17
2017-07-03T01:28:49.202Z,1014.13
2017-07-03T01:29:49.187Z,1014.09
2017-07-03T01:30:49.173Z,1014.08
2017-07-03T01:31:49.161Z,1014.04
2017-07-03T01:32:49.144Z,1014.06
2017-07-03T01:33:49.130Z,1014.04
2017-07-03T01:34:49.114Z,1014.04
2017-07-03T01:35:49.101Z,1014.03
2017-07-03T01:36:49.088Z,1014.01
2017-07-03T01:37:49.072Z,1014.01
2017-07-03T01:38:49.059Z,1014.01
2017-07-03T01:39:49.042Z,1014.01
2017-07-03T01:40:49.040Z,1013.98
2017-07-03T01:41:49.014Z,1014.02
2017-07-03T01:42:49.000Z,1013.99
2017-07-03T01:43:48.985Z,1013.96
2017-07-03T01:44:48.970Z,1013.99
2017-07-03T01:45:48.957Z,1013.98
2017-07-03T01:46:48.942Z,1013.95
2017-07-03T01:47:48.931Z,1013.94
2017-07-03T01:48:48.914Z,1013.96
2017-07-03T01:49:48.898Z,1014
2017-07-03T01:50:49.087Z,1013.96
2017-07-03T01:51:48.873Z,1013.96
2017-07-03T01:52:48.859Z,1013.92
2017-07-03T01:53:48.841Z,1013.94
2017-07-03T01:54:48.826Z,1013.93
2017-07-03T01:55:48.814Z,1013.91
2017-07-03T01:56:48.798Z,1013.86
2017-07-03T01:57:48.783Z,1013.92
2017-07-03T01:58:48.768Z,1013.89
2017-07-03T01:59:48.754Z,1013.9
2017-07-03T02:00:48.739Z,1013.88
2017-07-03T02:01:48.726Z,1013.87
2017-07-03T02:02:48.711Z,1013.88
2017-07-03T02:03:48.696Z,1013.89
2017-07-03T02:04:48.681Z,1013.87
2017-07-03T02:05:48.670Z,1013.9
2017-07-03T02:06:48.652Z,1013.93
2017-07-03T02:07:48.639Z,1013.91
2017-07-03T02:08:48.623Z,1013.91
2017-07-03T02:09:48.609Z,1013.93
2017-07-03T02:10:48.595Z,1013.89
2017-07-03T02:11:48.580Z,1013.86
2017-07-03T02:12:48.566Z,1013.83
2017-07-03T02:13:48.550Z,1013.84
2017-07-03T02:14:48.539Z,1013.87
2017-07-03T02:15:48.520Z,1013.84
2017-07-03T02:16:48.556Z,1013.88
2017-07-03T02:17:48.492Z,1013.87
2017-07-03T02:18:48.477Z,1013.88
2017-07-03T02:19:48.463Z,1013.85
2017-07-03T02:20:48.447Z,1013.88
2017-07-03T02:21:48.433Z,1013.86
2017-07-03T02:22:48.421Z,1013.85
2017-07-03T02:23:48.402Z,1013.85
2017-07-03T02:24:48.391Z,1013.86
2017-07-03T02:25:48.375Z,1013.83
2017-07-03T02:26:48.359Z,1013.86
2017-07-03T02:27:48.343Z,1013.89
2017-07-03T02:28:48.329Z,1013.84
2017-07-03T02:29:48.315Z,1013.83
2017-07-03T02:30:48.300Z,1013.83
2017-07-03T02:31:48.285Z,1013.79
2017-07-03T02:32:48.269Z,1013.8
2017-07-03T02:33:48.255Z,1013.8
2017-07-03T02:34:48.239Z,1013.8
2017-07-03T02:35:48.225Z,1013.81
2017-07-03T02:36:48.210Z,1013.82
2017-07-03T02:37:48.195Z,1013.83
2017-07-03T02:38:48.180Z,1013.86
2017-07-03T02:39:48.167Z,1013.82
2017-07-03T02:40:48.149Z,1013.82
2017-07-03T02:41:48.136Z,1013.89
2017-07-03T02:42:48.121Z,1013.84
2017-07-03T02:43:48.106Z,1013.84
2017-07-03T02:44:48.093Z,1013.85
2017-07-03T02:45:48.075Z,1013.87
2017-07-03T02:46:48.061Z,1013.89
2017-07-03T02:47:48.049Z,1013.88
2017-07-03T02:48:48.031Z,1013.88
2017-07-03T02:49:48.016Z,1013.93
2017-07-03T02:50:48.001Z,1013.86
2017-07-03T02:51:47.987Z,1013.84
2017-07-03T02:52:48.010Z,1013.91
2017-07-03T02:53:47.956Z,1013.91
2017-07-03T02:54:47.941Z,1013.89
2017-07-03T02:55:47.925Z,1013.91
2017-07-03T02:56:47.911Z,1013.89
2017-07-03T02:57:47.898Z,1013.9
2017-07-03T02:58:47.882Z,1013.91
2017-07-03T02:59:47.866Z,1013.88
2017-07-03T03:00:47.851Z,1013.93
2017-07-03T03:01:47.837Z,1013.89
2017-07-03T03:02:47.820Z,1013.89
2017-07-03T03:03:47.806Z,1013.88
2017-07-03T03:04:47.790Z,1013.9
2017-07-03T03:05:47.776Z,1013.87
2017-07-03T03:06:47.760Z,1013.87
2017-07-03T03:07:47.746Z,1013.9
2017-07-03T03:08:47.732Z,1013.91
2017-07-03T03:09:47.715Z,1013.91
2017-07-03T03:10:47.700Z,1013.92
2017-07-03T03:11:47.685Z,1013.92
2017-07-03T03:12:47.670Z,1013.93
2017-07-03T03:13:47.656Z,1013.89
2017-07-03T03:14:47.639Z,1013.91
2017-07-03T03:15:47.623Z,1013.86
2017-07-03T03:16:47.609Z,1013.86
2017-07-03T03:17:47.594Z,1013.87
2017-07-03T03:18:47.578Z,1013.87
2017-07-03T03:19:47.564Z,1013.84
2017-07-03T03:20:47.550Z,1013.84
2017-07-03T03:21:47.533Z,1013.88
2017-07-03T03:22:47.519Z,1013.87
2017-07-03T03:23:47.503Z,1013.9
2017-07-03T03:24:47.488Z,1013.9
2017-07-03T03:25:47.473Z,1013.94
2017-07-03T03:26:47.458Z,1013.92
2017-07-03T03:27:47.446Z,1013.94
2017-07-03T03:28:47.428Z,1013.96
2017-07-03T03:29:47.414Z,1013.94
2017-07-03T03:30:47.397Z,1013.95
2017-07-03T03:31:47.383Z,1013.95
2017-07-03T03:32:47.367Z,1013.97
2017-07-03T03:33:47.352Z,1013.98
2017-07-03T03:34:47.337Z,1013.99
2017-07-03T03:35:47.321Z,1014
2017-07-03T03:36:47.307Z,1013.98
2017-07-03T03:37:47.291Z,1014.03
2017-07-03T03:38:47.278Z,1013.98
2017-07-03T03:39:47.262Z,1013.96
2017-07-03T03:40:47.246Z,1013.96
2017-07-03T03:41:47.231Z,1013.98
2017-07-03T03:42:47.215Z,1013.98
2017-07-03T03:43:47.200Z,1014.02
2017-07-03T03:44:47.185Z,1014.03
2017-07-03T03:45:47.170Z,1014.03
2017-07-03T03:46:47.154Z,1014.04
2017-07-03T03:47:47.139Z,1014.05
2017-07-03T03:48:47.124Z,1014.03
2017-07-03T03:49:47.108Z,1014.07
2017-07-03T03:50:47.297Z,1014.08
2017-07-03T03:51:47.084Z,1014.1
2017-07-03T03:52:47.063Z,1014.12
2017-07-03T03:53:47.050Z,1014.16
2017-07-03T03:54:47.032Z,1014.12
2017-07-03T03:55:47.018Z,1014.13
2017-07-03T03:56:47.004Z,1014.14
2017-07-03T03:57:46.990Z,1014.1
2017-07-03T03:58:46.972Z,1014.14
2017-07-03T03:59:46.959Z,1014.12
2017-07-03T04:00:46.942Z,1014.15
2017-07-03T04:01:46.928Z,1014.11
2017-07-03T04:02:46.911Z,1014.08
2017-07-03T04:03:46.896Z,1014.09
2017-07-03T04:04:46.885Z,1014.07
2017-07-03T04:05:46.867Z,1014.04
2017-07-03T04:06:46.851Z,1014.04
2017-07-03T04:07:46.838Z,1014.04
2017-07-03T04:08:46.822Z,1014
2017-07-03T04:09:46.807Z,1013.98
2017-07-03T04:10:46.797Z,1014.01
2017-07-03T04:11:46.776Z,1014
2017-07-03T04:12:46.761Z,1014.03
2017-07-03T04:13:46.749Z,1014.06
2017-07-03T04:14:46.731Z,1014.07
2017-07-03T04:15:46.717Z,1014.08
2017-07-03T04:16:46.701Z,1014.13
2017-07-03T04:17:46.685Z,1014.13
2017-07-03T04:18:46.672Z,1014.11
2017-07-03T04:19:46.659Z,1014.11
2017-07-03T04:20:46.642Z,1014.18
2017-07-03T04:21:46.626Z,1014.15
2017-07-03T04:22:46.611Z,1014.17
2017-07-03T04:23:46.596Z,1014.16
2017-07-03T04:24:46.583Z,1014.16
2017-07-03T04:25:46.568Z,1014.13
2017-07-03T04:26:46.553Z,1014.16
2017-07-03T04:27:46.537Z,1014.14
2017-07-03T04:28:46.523Z,1014.11
2017-07-03T04:29:46.506Z,1014.11
2017-07-03T04:30:46.494Z,1014.12
2017-07-03T04:31:46.479Z,1014.14
2017-07-03T04:32:46.486Z,1014.16
2017-07-03T04:33:46.451Z,1014.19
2017-07-03T04:34:46.435Z,1014.2
2017-07-03T04:35:46.420Z,1014.2
2017-07-03T04:36:46.405Z,1014.19
2017-07-03T04:37:46.392Z,1014.19
2017-07-03T04:38:46.376Z,1014.17
2017-07-03T04:39:46.362Z,1014.17
2017-07-03T04:40:46.347Z,1014.17
2017-07-03T04:41:46.336Z,1014.2
2017-07-03T04:42:46.316Z,1014.18
2017-07-03T04:43:46.303Z,1014.11
2017-07-03T04:44:46.288Z,1014.14
2017-07-03T04:45:46.273Z,1014.14
2017-07-03T04:46:46.259Z,1014.12
2017-07-03T04:47:46.246Z,1014.14
2017-07-03T04:48:46.236Z,1014.14
2017-07-03T04:49:46.217Z,1014.09
2017-07-03T04:50:46.202Z,1014.11
2017-07-03T04:51:46.188Z,1014.13
2017-07-03T04:52:46.174Z,1014.07
2017-07-03T04:53:46.216Z,1014.09
2017-07-03T04:54:46.146Z,1014.08
2017-07-03T04:55:46.131Z,1014.01
2017-07-03T04:56:46.115Z,1014.07
2017-07-03T04:57:46.101Z,1014.03
2017-07-03T04:58:46.088Z,1014.03
2017-07-03T04:59:46.074Z,1013.97
2017-07-03T05:00:46.060Z,1014.02
2017-07-03T05:01:46.045Z,1013.98
2017-07-03T05:02:46.033Z,1013.97
2017-07-03T05:03:46.016Z,1013.99
2017-07-03T05:04:46.002Z,1014.01
2017-07-03T05:05:45.991Z,1013.98
2017-07-03T05:06:45.976Z,1014.02
2017-07-03T05:07:45.966Z,1014
2017-07-03T05:08:45.947Z,1014
2017-07-03T05:09:45.932Z,1014.01
2017-07-03T05:10:45.916Z,1014.04
2017-07-03T05:11:45.904Z,1014.03
2017-07-03T05:12:45.888Z,1014
2017-07-03T05:13:45.875Z,1013.99
2017-07-03T05:14:45.860Z,1014.01
2017-07-03T05:15:45.846Z,1013.92
2017-07-03T05:16:45.834Z,1013.92
2017-07-03T05:17:45.819Z,1013.92
2017-07-03T05:18:45.805Z,1013.91
2017-07-03T05:19:45.792Z,1013.86
2017-07-03T05:20:45.776Z,1013.88
2017-07-03T05:21:45.763Z,1013.9
2017-07-03T05:22:45.749Z,1013.93
2017-07-03T05:23:45.736Z,1013.91
2017-07-03T05:24:45.721Z,1013.95
2017-07-03T05:25:45.707Z,1013.99
2017-07-03T05:26:45.693Z,1013.99
2017-07-03T05:27:45.683Z,1013.97
2017-07-03T05:28:45.667Z,1014.01
2017-07-03T05:29:45.652Z,1013.96
2017-07-03T05:30:45.638Z,1013.98
2017-07-03T05:31:45.624Z,1014
2017-07-03T05:32:45.610Z,1014
2017-07-03T05:33:45.600Z,1013.98
2017-07-03T05:34:45.584Z,1013.97
2017-07-03T05:35:45.571Z,1013.96
2017-07-03T05:36:45.559Z,1013.97
2017-07-03T05:37:45.544Z,1013.97
2017-07-03T05:38:45.577Z,1013.93
2017-07-03T05:39:45.516Z,1013.93
2017-07-03T05:40:45.502Z,1013.92
2017-07-03T05:41:45.487Z,1013.93
2017-07-03T05:42:45.474Z,1013.9
2017-07-03T05:43:45.461Z,1013.94
2017-07-03T05:44:45.446Z,1013.91
2017-07-03T05:45:45.435Z,1013.94
2017-07-03T05:46:45.420Z,1013.94
2017-07-03T05:47:45.406Z,1013.92
2017-07-03T05:48:45.393Z,1013.97
2017-07-03T05:49:45.379Z,1013.98
2017-07-03T05:50:45.570Z,1013.98
2017-07-03T05:51:45.353Z,1013.98
2017-07-03T05:52:45.340Z,1014.01
2017-07-03T05:53:45.328Z,1014.03
2017-07-03T05:54:45.313Z,1014.02
2017-07-03T05:55:45.300Z,1014.04
2017-07-03T05:56:45.288Z,1014.04
2017-07-03T05:57:45.273Z,1014.02
2017-07-03T05:58:45.262Z,1014.06
2017-07-03T05:59:45.249Z,1014.07
2017-07-03T06:00:45.236Z,1014.01
2017-07-03T06:01:45.222Z,1014.07
2017-07-03T06:02:45.207Z,1014.04
2017-07-03T06:03:45.196Z,1014.03
2017-07-03T06:04:45.182Z,1013.99
2017-07-03T06:05:45.169Z,1014.01
2017-07-03T06:06:45.157Z,1014
2017-07-03T06:07:45.143Z,1013.94
2017-07-03T06:08:45.130Z,1013.97
2017-07-03T06:09:45.116Z,1013.95
2017-07-03T06:10:45.103Z,1013.97
2017-07-03T06:11:45.091Z,1013.99
2017-07-03T06:12:45.078Z,1013.97
2017-07-03T06:13:45.071Z,1014.03
2017-07-03T06:14:45.053Z,1013.98
2017-07-03T06:15:45.041Z,1014.04
2017-07-03T06:16:45.027Z,1014
2017-07-03T06:17:45.014Z,1014.05
2017-07-03T06:18:45.002Z,1014.13
2017-07-03T06:19:44.988Z,1014.18
2017-07-03T06:20:44.977Z,1014.21
2017-07-03T06:21:44.963Z,1014.23
2017-07-03T06:22:44.953Z,1014.22
2017-07-03T06:23:44.942Z,1014.23
2017-07-03T06:24:44.930Z,1014.2
2017-07-03T06:25:44.920Z,1014.18
2017-07-03T06:26:44.907Z,1014.14
2017-07-03T06:27:44.896Z,1014.09
2017-07-03T06:28:44.888Z,1014.02
2017-07-03T06:29:44.879Z,1014.01
2017-07-03T06:30:44.862Z,1013.98
2017-07-03T06:31:44.852Z,1013.97
2017-07-03T06:32:44.842Z,1013.95
2017-07-03T06:33:44.830Z,1013.98
2017-07-03T06:34:44.821Z,1013.99
2017-07-03T06:35:44.810Z,1013.98
2017-07-03T06:36:44.799Z,1014.03
2017-07-03T06:37:44.787Z,1013.99
2017-07-03T06:38:44.778Z,1014.05
2017-07-03T06:39:44.764Z,1014.05
2017-07-03T06:40:44.754Z,1014.09
2017-07-03T06:41:44.742Z,1014.08
2017-07-03T06:42:44.729Z,1014.09
2017-07-03T06:43:44.718Z,1014.12
2017-07-03T06:44:44.707Z,1014.09
2017-07-03T06:45:44.695Z,1014.11
2017-07-03T06:46:44.683Z,1014.09
2017-07-03T06:47:44.673Z,1014.15
2017-07-03T06:48:44.661Z,1014.23
2017-07-03T06:49:44.648Z,1014.39
2017-07-03T06:50:44.638Z,1014.44
2017-07-03T06:51:44.664Z,1014.4
2017-07-03T06:52:44.615Z,1014.4
2017-07-03T06:53:44.609Z,1014.39
2017-07-03T06:54:44.670Z,1014.3
2017-07-03T06:55:44.585Z,1014.25
2017-07-03T06:56:44.575Z,1014.14
2017-07-03T06:57:44.566Z,1014.17
2017-07-03T06:58:44.556Z,1014.13
2017-07-03T06:59:44.548Z,1014.13
2017-07-03T07:00:44.537Z,1014.13
2017-07-03T07:01:44.528Z,1014.14
2017-07-03T07:02:44.523Z,1014.21
2017-07-03T07:03:44.510Z,1014.16
2017-07-03T07:04:44.500Z,1014.19
2017-07-03T07:05:44.491Z,1014.2
2017-07-03T07:06:44.480Z,1014.19
2017-07-03T07:07:44.470Z,1014.15
2017-07-03T07:08:44.462Z,1014.19
2017-07-03T07:09:44.450Z,1014.22
2017-07-03T07:10:44.472Z,1014.17
2017-07-03T07:11:44.431Z,1014.21
2017-07-03T07:12:44.420Z,1014.35
2017-07-03T07:13:44.410Z,1014.38
2017-07-03T07:14:44.402Z,1014.42
2017-07-03T07:15:44.393Z,1014.51
2017-07-03T07:16:44.382Z,1014.54
2017-07-03T07:17:44.372Z,1014.53
2017-07-03T07:18:44.362Z,1014.51
2017-07-03T07:19:44.357Z,1014.58
2017-07-03T07:20:44.345Z,1014.58
2017-07-03T07:21:44.339Z,1014.59
2017-07-03T07:22:44.330Z,1014.56
2017-07-03T07:23:44.324Z,1014.53
2017-07-03T07:24:44.318Z,1014.52
2017-07-03T07:25:44.310Z,1014.56
2017-07-03T07:26:44.304Z,1014.54
2017-07-03T07:27:44.296Z,1014.54
2017-07-03T07:28:44.291Z,1014.55
2017-07-03T07:29:44.285Z,1014.47
2017-07-03T07:30:44.280Z,1014.63
2017-07-03T07:31:44.275Z,1014.54
2017-07-03T07:32:44.273Z,1014.63
2017-07-03T07:33:44.262Z,1014.68
2017-07-03T07:34:44.259Z,1014.7
2017-07-03T07:35:44.256Z,1014.7
2017-07-03T07:36:44.251Z,1014.66
2017-07-03T07:37:44.248Z,1014.69
2017-07-03T07:38:44.242Z,1014.65
2017-07-03T07:39:44.287Z,1014.7
2017-07-03T07:40:44.232Z,1014.68
2017-07-03T07:41:44.229Z,1014.62
2017-07-03T07:42:44.226Z,1014.64
2017-07-03T07:43:44.225Z,1014.62
2017-07-03T07:44:44.218Z,1014.57
2017-07-03T07:45:44.215Z,1014.59
2017-07-03T07:46:44.213Z,1014.61
2017-07-03T07:47:44.210Z,1014.59
2017-07-03T07:48:44.208Z,1014.59
2017-07-03T07:49:44.203Z,1014.53
2017-07-03T07:50:44.401Z,1014.54
2017-07-03T07:51:44.196Z,1014.55
2017-07-03T07:52:44.195Z,1014.61
2017-07-03T07:53:44.193Z,1014.57
2017-07-03T07:54:44.189Z,1014.58
2017-07-03T07:55:44.185Z,1014.58
2017-07-03T07:56:44.185Z,1014.66
2017-07-03T07:57:44.182Z,1014.62
2017-07-03T07:58:44.181Z,1014.6
2017-07-03T07:59:44.177Z,1014.56
2017-07-03T08:00:44.173Z,1014.54
2017-07-03T08:01:44.173Z,1014.58
2017-07-03T08:02:44.170Z,1014.56
2017-07-03T08:03:44.169Z,1014.53
2017-07-03T08:04:44.168Z,1014.53
2017-07-03T08:05:44.166Z,1014.55
2017-07-03T08:06:44.165Z,1014.49
2017-07-03T08:07:44.163Z,1014.52
2017-07-03T08:08:44.160Z,1014.53
2017-07-03T08:09:44.169Z,1014.5
2017-07-03T08:10:44.156Z,1014.52
2017-07-03T08:11:44.155Z,1014.49
2017-07-03T08:12:44.153Z,1014.57
2017-07-03T08:13:44.152Z,1014.52
2017-07-03T08:14:44.149Z,1014.59
2017-07-03T08:15:44.149Z,1014.53
2017-07-03T08:16:44.147Z,1014.45
2017-07-03T08:17:44.146Z,1014.45
2017-07-03T08:18:44.144Z,1014.46
2017-07-03T08:19:44.144Z,1014.45
2017-07-03T08:20:44.142Z,1014.47
2017-07-03T08:21:44.141Z,1014.4
2017-07-03T08:22:44.138Z,1014.37
2017-07-03T08:23:44.140Z,1014.37
2017-07-03T08:24:44.136Z,1014.41
2017-07-03T08:25:44.135Z,1014.4
2017-07-03T08:26:44.135Z,1014.4
2017-07-03T08:27:44.135Z,1014.36
2017-07-03T08:28:44.133Z,1014.37
2017-07-03T08:29:44.132Z,1014.4
2017-07-03T08:30:44.132Z,1014.31
2017-07-03T08:31:44.130Z,1014.33
2017-07-03T08:32:44.130Z,1014.34
2017-07-03T08:33:44.128Z,1014.32
2017-07-03T08:34:44.130Z,1014.33
2017-07-03T08:35:44.129Z,1014.33
2017-07-03T08:36:44.132Z,1014.32
2017-07-03T08:37:44.130Z,1014.37
2017-07-03T08:38:44.130Z,1014.35
2017-07-03T08:39:44.128Z,1014.36
2017-07-03T08:40:44.128Z,1014.36
2017-07-03T08:41:44.133Z,1014.41
2017-07-03T08:42:44.127Z,1014.45
2017-07-03T08:43:44.130Z,1014.43
2017-07-03T08:44:44.129Z,1014.42
2017-07-03T08:45:44.130Z,1014.41
2017-07-03T08:46:44.129Z,1014.44
2017-07-03T08:47:44.130Z,1014.29
2017-07-03T08:48:44.130Z,1014.14
2017-07-03T08:49:44.132Z,1014.07
2017-07-03T08:50:44.130Z,1014.06
2017-07-03T08:51:44.130Z,1014.01
2017-07-03T08:52:44.130Z,1013.95
2017-07-03T08:53:44.129Z,1013.93
2017-07-03T08:54:44.127Z,1013.9
2017-07-03T08:55:44.126Z,1014.01
2017-07-03T08:56:44.126Z,1014.07
2017-07-03T08:57:44.123Z,1014.13
2017-07-03T08:58:44.120Z,1013.95
2017-07-03T08:59:44.119Z,1013.9
2017-07-03T09:00:44.115Z,1013.86
2017-07-03T09:01:44.113Z,1013.84
2017-07-03T09:02:44.110Z,1013.77
2017-07-03T09:03:44.115Z,1013.83
2017-07-03T09:04:44.103Z,1013.86
2017-07-03T09:05:44.099Z,1013.86
2017-07-03T09:06:44.098Z,1013.79
2017-07-03T09:07:44.092Z,1013.79
2017-07-03T09:08:44.087Z,1013.86
2017-07-03T09:09:44.083Z,1013.96
2017-07-03T09:10:44.080Z,1013.85
2017-07-03T09:11:44.075Z,1014.1
2017-07-03T09:12:44.071Z,1014.18
2017-07-03T09:13:44.067Z,1014.22
2017-07-03T09:14:44.062Z,1014.37
2017-07-03T09:15:44.058Z,1014.35
2017-07-03T09:16:44.052Z,1014.39
2017-07-03T09:17:44.052Z,1014.33
2017-07-03T09:18:44.047Z,1014.27
2017-07-03T09:19:44.041Z,1014.33
2017-07-03T09:20:44.039Z,1014.26
2017-07-03T09:21:44.037Z,1014.37
2017-07-03T09:22:44.072Z,1014.24
2017-07-03T09:23:44.031Z,1014.31
2017-07-03T09:24:44.031Z,1014.37
2017-07-03T09:25:44.028Z,1014.39
2017-07-03T09:26:44.025Z,1014.38
2017-07-03T09:27:44.024Z,1014.37
2017-07-03T09:28:44.023Z,1014.33
2017-07-03T09:29:44.022Z,1014.38
2017-07-03T09:30:44.022Z,1014.31
2017-07-03T09:31:44.022Z,1014.32
2017-07-03T09:32:44.020Z,1014.33
2017-07-03T09:33:44.021Z,1014.34
2017-07-03T09:34:44.021Z,1014.23
2017-07-03T09:35:44.020Z,1014.24
2017-07-03T09:36:44.021Z,1014.28
2017-07-03T09:37:44.021Z,1014.28
2017-07-03T09:38:44.021Z,1014.02
2017-07-03T09:39:44.023Z,1014.27
2017-07-03T09:40:44.025Z,1014.17
2017-07-03T09:41:44.024Z,1014.26
2017-07-03T09:42:44.030Z,1014.2
2017-07-03T09:43:44.028Z,1014.22
2017-07-03T09:44:44.029Z,1014.32
2017-07-03T09:45:44.029Z,1013.98
2017-07-03T09:46:44.033Z,1014.15
2017-07-03T09:47:44.033Z,1013.91
2017-07-03T09:48:44.035Z,1013.84
2017-07-03T09:49:44.036Z,1013.83
2017-07-03T09:50:44.240Z,1013.97
2017-07-03T09:51:44.039Z,1014.22
2017-07-03T09:52:44.040Z,1014.16
2017-07-03T09:53:44.041Z,1013.62
2017-07-03T09:54:44.046Z,1014.33
2017-07-03T09:55:44.045Z,1014.27
2017-07-03T09:56:44.047Z,1014.27
2017-07-03T09:57:44.049Z,1014.2
2017-07-03T09:58:44.051Z,1014.17
2017-07-03T09:59:44.053Z,1014.21
2017-07-03T10:00:44.054Z,1014.2
2017-07-03T10:01:44.056Z,1014.2
2017-07-03T10:02:44.058Z,1014.24
2017-07-03T10:03:44.059Z,1014.25
2017-07-03T10:04:44.062Z,1014.22
2017-07-03T10:05:44.064Z,1014.16
2017-07-03T10:06:44.066Z,1014.15
2017-07-03T10:07:44.141Z,1013.8
2017-07-03T10:08:44.071Z,1014.18
2017-07-03T10:09:44.073Z,1014.04
2017-07-03T10:10:44.075Z,1014.08
2017-07-03T10:11:44.079Z,1013.95
2017-07-03T10:12:44.084Z,1013.81
2017-07-03T10:13:44.084Z,1013.83
2017-07-03T10:14:44.085Z,1013.95
2017-07-03T10:15:44.089Z,1014.06
2017-07-03T10:16:44.091Z,1014.15
2017-07-03T10:17:44.093Z,1014.15
2017-07-03T10:18:44.134Z,1014.09
2017-07-03T10:19:44.097Z,1014.15
2017-07-03T10:20:44.102Z,1014.07
2017-07-03T10:21:44.103Z,1014.04
2017-07-03T10:22:44.106Z,1014.11
2017-07-03T10:23:44.109Z,1014.1
2017-07-03T10:24:44.111Z,1014.13
2017-07-03T10:25:44.115Z,1014.03
2017-07-03T10:26:44.116Z,1014.06
2017-07-03T10:27:44.121Z,1013.95
2017-07-03T10:28:44.124Z,1014.04
2017-07-03T10:29:44.124Z,1013.94
2017-07-03T10:30:44.128Z,1013.9
2017-07-03T10:31:44.132Z,1013.89
2017-07-03T10:32:44.135Z,1013.92
2017-07-03T10:33:44.155Z,1013.94
2017-07-03T10:34:44.140Z,1013.94
2017-07-03T10:35:44.144Z,1014
2017-07-03T10:36:44.146Z,1014.01
2017-07-03T10:37:44.150Z,1013.95
2017-07-03T10:38:44.153Z,1013.85
2017-07-03T10:39:44.155Z,1013.85
2017-07-03T10:40:44.159Z,1013.83
2017-07-03T10:41:44.164Z,1013.83
2017-07-03T10:42:44.165Z,1013.81
2017-07-03T10:43:44.169Z,1013.75
2017-07-03T10:44:44.172Z,1013.68
2017-07-03T10:45:44.177Z,1013.65
2017-07-03T10:46:44.180Z,1013.47
2017-07-03T10:47:44.188Z,1013.62
2017-07-03T10:48:44.185Z,1013.54
2017-07-03T10:49:44.188Z,1013.46
2017-07-03T10:50:44.191Z,1013.32
2017-07-03T10:51:44.193Z,1013.22
2017-07-03T10:52:44.198Z,1013.16
2017-07-03T10:53:44.201Z,1013.21
2017-07-03T10:54:44.206Z,1013.12
2017-07-03T10:55:44.210Z,1013.22
2017-07-03T10:56:44.211Z,1013.14
2017-07-03T10:57:44.215Z,1013.1
2017-07-03T10:58:44.218Z,1013.1
2017-07-03T10:59:44.222Z,1013.03
2017-07-03T11:00:44.225Z,1013.08
2017-07-03T11:01:44.241Z,1013.05
2017-07-03T11:02:44.231Z,1013.09
2017-07-03T11:03:44.235Z,1013.04
2017-07-03T11:04:44.239Z,1012.95
2017-07-03T11:05:44.241Z,1013.02
2017-07-03T11:06:44.244Z,1013.01
2017-07-03T11:07:44.249Z,1013.02
2017-07-03T11:08:44.254Z,1012.9
2017-07-03T11:09:44.284Z,1013
2017-07-03T11:10:44.261Z,1012.96
2017-07-03T11:11:44.263Z,1012.96
2017-07-03T11:12:44.265Z,1012.91
2017-07-03T11:13:44.271Z,1012.9
2017-07-03T11:14:44.275Z,1012.94
2017-07-03T11:15:44.280Z,1012.92
2017-07-03T11:16:44.281Z,1012.83
2017-07-03T11:17:44.285Z,1012.85
2017-07-03T11:18:44.288Z,1012.77
2017-07-03T11:19:44.291Z,1012.79
2017-07-03T11:20:44.296Z,1012.87
2017-07-03T11:21:44.302Z,1012.85
2017-07-03T11:22:44.305Z,1012.79
2017-07-03T11:23:44.308Z,1012.81
2017-07-03T11:24:44.313Z,1012.86
2017-07-03T11:25:44.315Z,1012.82
2017-07-03T11:26:44.318Z,1012.81
2017-07-03T11:27:44.322Z,1012.79
2017-07-03T11:28:44.326Z,1012.81
2017-07-03T11:29:44.330Z,1012.77
2017-07-03T11:30:44.383Z,1012.79
2017-07-03T11:31:44.335Z,1012.83
2017-07-03T11:32:44.342Z,1012.75
2017-07-03T11:33:44.346Z,1012.77
2017-07-03T11:34:44.347Z,1012.77
2017-07-03T11:35:44.351Z,1012.77
2017-07-03T11:36:44.354Z,1012.89
2017-07-03T11:37:44.358Z,1012.8
2017-07-03T11:38:44.360Z,1012.8
2017-07-03T11:39:44.364Z,1012.79
2017-07-03T11:40:44.367Z,1012.77
2017-07-03T11:41:44.372Z,1012.95
2017-07-03T11:42:44.377Z,1012.86
2017-07-03T11:43:44.380Z,1012.81
2017-07-03T11:44:44.382Z,1012.74
2017-07-03T11:45:44.386Z,1012.78
2017-07-03T11:46:44.389Z,1012.77
2017-07-03T11:47:44.394Z,1012.76
2017-07-03T11:48:44.398Z,1012.81
2017-07-03T11:49:44.401Z,1012.77
2017-07-03T11:50:44.406Z,1012.75
2017-07-03T11:51:44.409Z,1012.71
2017-07-03T11:52:44.414Z,1012.67
2017-07-03T11:53:44.415Z,1012.7
2017-07-03T11:54:44.420Z,1012.61
2017-07-03T11:55:44.425Z,1012.68
2017-07-03T11:56:44.428Z,1012.73
2017-07-03T11:57:44.433Z,1012.68
2017-07-03T11:58:44.435Z,1012.66
2017-07-03T11:59:44.440Z,1012.57
2017-07-03T12:00:44.443Z,1012.6
2017-07-03T12:01:44.449Z,1012.53
2017-07-03T12:02:44.451Z,1012.54
2017-07-03T12:03:44.455Z,1012.59
2017-07-03T12:04:44.462Z,1012.59
2017-07-03T12:05:44.470Z,1012.54
2017-07-03T12:06:44.467Z,1012.54
2017-07-03T12:07:44.468Z,1012.57
2017-07-03T12:08:44.471Z,1012.58